METAR ET TAF INFORMATION
METAR FOR DAUE
ADDS - METARS form results

(2057 UTC 10 August 2022)
Data provider http://aviationweather.gov/metar/data/
 
METAR text: DAUE 102000Z VRB02KT CAVOK 36/06 Q1014
Conditions at: DAUE (EL GOLEA , DZ) observed 2000 UTC 10 August 2022
Temperature: 36.0°C (97°F)
Dewpoint: 6.0°C (43°F) [RH = 16%]
Pressure (altimeter): 29.94 inches Hg (1014.0 mb)
Winds: variable direction winds at 2 MPH (2 knots; 1.0 m/s)
Visibility: 6 or more miles (10+ km)
Ceiling: ceiling and visibility are OK
Clouds: unknown
Weather: no significant weather observed at this time

 AÉROPORT DE AÉROPORT

 INFORMATIONS DE PISTE
Piste 10 Longueur de la piste 5906 ft Largeur de la piste 148 ft
Élévation de la piste 1306 ft Seuil de la piste déplacés 0 ft Runway heading 102
Piste 28 Longueur de la piste 5906 ft Largeur de la piste 148 ft
Élévation de la piste 1289 ft Seuil de la piste déplacés 0 ft Runway heading 282
Piste 18 Longueur de la piste 9843 ft Largeur de la piste 148 ft
Élévation de la piste 1302 ft Seuil de la piste déplacés 0 ft Runway heading 180
Piste 36 Longueur de la piste 9843 ft Largeur de la piste 148 ft
Élévation de la piste 1293 ft Seuil de la piste déplacés 0 ft Runway heading 360

 AÉROPORT FRÉQUENCES
Type RDO Nom RDO Féquence 889.4 MHZ
Type TWR Nom TWR Féquence 119.7 MHZ

 SIDA DE NAVIGATION
Type NDB Nom El Golea Féquence 375 KHZ
Type VOR-DME Nom El Golea Féquence 112100 KHZ



Powered by Virtual Airlines Manager [v2.6.2]